sensor_id;sensor_type;location;lat;lon;timestamp;temperature;humidity
20862;DHT22;10591;52.532;13.348;2023-04-03T00:01:44;1.06;73.84
20862;DHT22;10591;52.532;13.348;2023-04-03T00:04:14;1.14;73.97
20862;DHT22;10591;52.532;13.348;2023-04-03T00:06:47;1.04;74.11
20862;DHT22;10591;52.532;13.348;2023-04-03T00:09:17;1.06;74.16
20862;DHT22;10591;52.532;13.348;2023-04-03T00:11:48;0.98;74.64
20862;DHT22;10591;52.532;13.348;2023-04-03T00:14:20;0.96;74.49
20862;DHT22;10591;52.532;13.348;2023-04-03T00:16:51;1.04;74.05
20862;DHT22;10591;52.532;13.348;2023-04-03T00:19:22;1.02;74.23
20862;DHT22;10591;52.532;13.348;2023-04-03T00:21:53;1.01;74.39
20862;DHT22;10591;52.532;13.348;2023-04-03T00:24:24;0.97;74.18
20862;DHT22;10591;52.532;13.348;2023-04-03T00:26:54;1.08;74.16
20862;DHT22;10591;52.532;13.348;2023-04-03T00:29:25;0.94;74.33
20862;DHT22;10591;52.532;13.348;2023-04-03T00:31:56;0.94;74.13
20862;DHT22;10591;52.532;13.348;2023-04-03T00:34:26;0.96;74.28
20862;DHT22;10591;52.532;13.348;2023-04-03T00:36:57;0.92;74.41
20862;DHT22;10591;52.532;13.348;2023-04-03T00:39:29;0.92;74.21
20862;DHT22;10591;52.532;13.348;2023-04-03T00:42:01;0.96;73.99
20862;DHT22;10591;52.532;13.348;2023-04-03T00:47:08;0.90;74.23
20862;DHT22;10591;52.532;13.348;2023-04-03T00:49:40;0.84;74.44
20862;DHT22;10591;52.532;13.348;2023-04-03T00:52:16;0.89;74.40
20862;DHT22;10591;52.532;13.348;2023-04-03T00:54:48;0.74;74.61
20862;DHT22;10591;52.532;13.348;2023-04-03T00:57:19;0.80;74.60
20862;DHT22;10591;52.532;13.348;2023-04-03T00:59:57;0.74;74.73
20862;DHT22;10591;52.532;13.348;2023-04-03T01:02:28;0.74;74.83
20862;DHT22;10591;52.532;13.348;2023-04-03T01:04:58;0.80;74.84
20862;DHT22;10591;52.532;13.348;2023-04-03T01:07:30;0.71;74.95
20862;DHT22;10591;52.532;13.348;2023-04-03T01:10:06;0.65;75.10
20862;DHT22;10591;52.532;13.348;2023-04-03T01:12:39;0.72;75.00
20862;DHT22;10591;52.532;13.348;2023-04-03T01:15:15;0.60;75.22
20862;DHT22;10591;52.532;13.348;2023-04-03T01:17:57;0.60;75.14
20862;DHT22;10591;52.532;13.348;2023-04-03T01:28:30;0.66;75.23
20862;DHT22;10591;52.532;13.348;2023-04-03T01:31:15;0.60;75.58
20862;DHT22;10591;52.532;13.348;2023-04-03T01:33:43;0.63;75.49
20862;DHT22;10591;52.532;13.348;2023-04-03T01:36:20;0.64;75.28
20862;DHT22;10591;52.532;13.348;2023-04-03T01:38:50;0.56;75.63
20862;DHT22;10591;52.532;13.348;2023-04-03T01:41:22;0.59;75.58
20862;DHT22;10591;52.532;13.348;2023-04-03T01:43:52;0.48;75.88
20862;DHT22;10591;52.532;13.348;2023-04-03T01:46:23;0.48;76.24
20862;DHT22;10591;52.532;13.348;2023-04-03T01:48:57;0.64;75.89
20862;DHT22;10591;52.532;13.348;2023-04-03T01:51:28;0.45;75.96
20862;DHT22;10591;52.532;13.348;2023-04-03T01:53:59;0.46;75.87
20862;DHT22;10591;52.532;13.348;2023-04-03T01:56:29;0.36;76.36
20862;DHT22;10591;52.532;13.348;2023-04-03T01:59:00;0.62;76.24
20862;DHT22;10591;52.532;13.348;2023-04-03T02:01:31;0.40;76.20
20862;DHT22;10591;52.532;13.348;2023-04-03T02:04:02;0.40;76.39
20862;DHT22;10591;52.532;13.348;2023-04-03T02:06:33;0.46;76.28
20862;DHT22;10591;52.532;13.348;2023-04-03T02:09:04;0.40;76.22
20862;DHT22;10591;52.532;13.348;2023-04-03T02:11:36;0.39;76.39
20862;DHT22;10591;52.532;13.348;2023-04-03T02:14:07;0.33;76.59
20862;DHT22;10591;52.532;13.348;2023-04-03T02:16:38;0.20;77.04
20862;DHT22;10591;52.532;13.348;2023-04-03T02:19:08;0.24;77.19
20862;DHT22;10591;52.532;13.348;2023-04-03T02:21:39;0.20;76.80
20862;DHT22;10591;52.532;13.348;2023-04-03T02:24:10;0.31;77.07
20862;DHT22;10591;52.532;13.348;2023-04-03T02:26:41;0.16;77.27
20862;DHT22;10591;52.532;13.348;2023-04-03T02:29:12;0.15;77.75
20862;DHT22;10591;52.532;13.348;2023-04-03T02:31:43;0.36;77.51
20862;DHT22;10591;52.532;13.348;2023-04-03T02:34:14;0.15;77.48
20862;DHT22;10591;52.532;13.348;2023-04-03T02:36:45;0.24;77.08
20862;DHT22;10591;52.532;13.348;2023-04-03T02:39:15;0.14;77.26
20862;DHT22;10591;52.532;13.348;2023-04-03T02:41:46;0.18;77.32
20862;DHT22;10591;52.532;13.348;2023-04-03T02:44:18;0.22;77.05
20862;DHT22;10591;52.532;13.348;2023-04-03T02:46:49;0.22;77.29
20862;DHT22;10591;52.532;13.348;2023-04-03T02:49:20;0.28;76.84
20862;DHT22;10591;52.532;13.348;2023-04-03T02:51:51;0.12;77.38
20862;DHT22;10591;52.532;13.348;2023-04-03T02:54:22;0.22;77.05
20862;DHT22;10591;52.532;13.348;2023-04-03T02:56:53;0.26;76.98
20862;DHT22;10591;52.532;13.348;2023-04-03T02:59:24;0.14;77.32
20862;DHT22;10591;52.532;13.348;2023-04-03T03:01:54;0.14;77.53
20862;DHT22;10591;52.532;13.348;2023-04-03T03:04:25;0.17;77.16
20862;DHT22;10591;52.532;13.348;2023-04-03T03:06:56;0.18;77.18
20862;DHT22;10591;52.532;13.348;2023-04-03T03:09:27;0.18;77.30
20862;DHT22;10591;52.532;13.348;2023-04-03T03:12:01;0.22;77.52
20862;DHT22;10591;52.532;13.348;2023-04-03T03:14:31;0.14;77.15
20862;DHT22;10591;52.532;13.348;2023-04-03T03:17:02;0.07;77.44
20862;DHT22;10591;52.532;13.348;2023-04-03T03:19:32;0.00;77.59
20862;DHT22;10591;52.532;13.348;2023-04-03T03:22:03;0.12;77.74
20862;DHT22;10591;52.532;13.348;2023-04-03T03:24:33;-0.02;77.88
20862;DHT22;10591;52.532;13.348;2023-04-03T03:27:05;0.03;77.62
20862;DHT22;10591;52.532;13.348;2023-04-03T03:29:36;0.12;77.78
20862;DHT22;10591;52.532;13.348;2023-04-03T03:32:07;0.08;77.87
20862;DHT22;10591;52.532;13.348;2023-04-03T03:34:38;-0.04;77.85
20862;DHT22;10591;52.532;13.348;2023-04-03T03:37:09;-0.10;78.21
20862;DHT22;10591;52.532;13.348;2023-04-03T03:39:39;-0.12;78.42
20862;DHT22;10591;52.532;13.348;2023-04-03T03:42:14;-0.16;78.51
20862;DHT22;10591;52.532;13.348;2023-04-03T03:44:45;-0.06;78.27
20862;DHT22;10591;52.532;13.348;2023-04-03T03:47:16;-0.08;78.33
20862;DHT22;10591;52.532;13.348;2023-04-03T03:49:46;-0.16;78.20
20862;DHT22;10591;52.532;13.348;2023-04-03T03:52:17;-0.06;78.22
20862;DHT22;10591;52.532;13.348;2023-04-03T03:54:48;-0.24;78.58
20862;DHT22;10591;52.532;13.348;2023-04-03T03:57:18;-0.22;78.65
20862;DHT22;10591;52.532;13.348;2023-04-03T03:59:50;-0.20;78.66
20862;DHT22;10591;52.532;13.348;2023-04-03T04:02:22;-0.26;78.84
20862;DHT22;10591;52.532;13.348;2023-04-03T04:04:53;-0.25;78.79
20862;DHT22;10591;52.532;13.348;2023-04-03T04:07:23;-0.29;78.97
20862;DHT22;10591;52.532;13.348;2023-04-03T04:10:00;-0.28;78.83
20862;DHT22;10591;52.532;13.348;2023-04-03T04:12:26;-0.32;78.98
20862;DHT22;10591;52.532;13.348;2023-04-03T04:14:56;-0.28;78.93
20862;DHT22;10591;52.532;13.348;2023-04-03T04:17:27;-0.36;79.10
20862;DHT22;10591;52.532;13.348;2023-04-03T04:19:58;-0.24;79.21
20862;DHT22;10591;52.532;13.348;2023-04-03T04:22:28;-0.32;79.03
20862;DHT22;10591;52.532;13.348;2023-04-03T04:24:59;-0.31;79.39
20862;DHT22;10591;52.532;13.348;2023-04-03T04:27:31;-0.25;79.33
20862;DHT22;10591;52.532;13.348;2023-04-03T04:30:02;-0.43;79.68
20862;DHT22;10591;52.532;13.348;2023-04-03T04:32:34;-0.40;80.00
20862;DHT22;10591;52.532;13.348;2023-04-03T04:35:07;-0.26;80.09
20862;DHT22;10591;52.532;13.348;2023-04-03T04:37:37;-0.39;79.72
20862;DHT22;10591;52.532;13.348;2023-04-03T04:40:08;-0.24;79.59
20862;DHT22;10591;52.532;13.348;2023-04-03T04:42:39;-0.22;79.49
20862;DHT22;10591;52.532;13.348;2023-04-03T04:45:10;-0.28;80.02
20862;DHT22;10591;52.532;13.348;2023-04-03T04:47:40;-0.16;79.67
20862;DHT22;10591;52.532;13.348;2023-04-03T04:50:11;-0.33;79.76
20862;DHT22;10591;52.532;13.348;2023-04-03T04:52:42;-0.32;79.78
20862;DHT22;10591;52.532;13.348;2023-04-03T04:55:12;-0.14;79.56
20862;DHT22;10591;52.532;13.348;2023-04-03T04:57:43;-0.23;79.73
20862;DHT22;10591;52.532;13.348;2023-04-03T05:00:14;-0.17;79.72
20862;DHT22;10591;52.532;13.348;2023-04-03T05:02:45;-0.06;79.54
20862;DHT22;10591;52.532;13.348;2023-04-03T05:05:16;-0.04;78.98
20862;DHT22;10591;52.532;13.348;2023-04-03T05:07:47;0.11;78.75
20862;DHT22;10591;52.532;13.348;2023-04-03T05:10:17;0.12;78.73
20862;DHT22;10591;52.532;13.348;2023-04-03T05:12:49;-0.02;78.73
20862;DHT22;10591;52.532;13.348;2023-04-03T05:15:20;0.18;78.74
20862;DHT22;10591;52.532;13.348;2023-04-03T05:17:51;1.44;75.52
20862;DHT22;10591;52.532;13.348;2023-04-03T05:20:22;2.72;70.92
20862;DHT22;10591;52.532;13.348;2023-04-03T05:22:53;4.00;67.39
20862;DHT22;10591;52.532;13.348;2023-04-03T05:25:24;4.22;63.76
20862;DHT22;10591;52.532;13.348;2023-04-03T05:27:56;5.45;60.52
20862;DHT22;10591;52.532;13.348;2023-04-03T05:30:27;5.37;60.56
20862;DHT22;10591;52.532;13.348;2023-04-03T05:32:59;5.81;59.02
20862;DHT22;10591;52.532;13.348;2023-04-03T05:35:29;6.10;58.73
20862;DHT22;10591;52.532;13.348;2023-04-03T05:38:02;7.12;55.33
20862;DHT22;10591;52.532;13.348;2023-04-03T05:40:32;7.47;53.37
20862;DHT22;10591;52.532;13.348;2023-04-03T05:43:03;6.96;55.95
20862;DHT22;10591;52.532;13.348;2023-04-03T05:45:35;7.51;54.38
20862;DHT22;10591;52.532;13.348;2023-04-03T05:48:06;7.76;52.61
20862;DHT22;10591;52.532;13.348;2023-04-03T05:50:39;7.74;51.91
20862;DHT22;10591;52.532;13.348;2023-04-03T05:53:15;8.53;51.72
20862;DHT22;10591;52.532;13.348;2023-04-03T05:55:46;8.48;51.39
20862;DHT22;10591;52.532;13.348;2023-04-03T05:58:17;8.47;50.87
20862;DHT22;10591;52.532;13.348;2023-04-03T06:00:48;8.56;50.30
20862;DHT22;10591;52.532;13.348;2023-04-03T06:03:21;8.48;51.69
20862;DHT22;10591;52.532;13.348;2023-04-03T06:05:53;8.58;49.91
20862;DHT22;10591;52.532;13.348;2023-04-03T06:08:23;8.24;52.08
20862;DHT22;10591;52.532;13.348;2023-04-03T06:10:54;8.24;50.72
20862;DHT22;10591;52.532;13.348;2023-04-03T06:13:25;6.34;55.27
20862;DHT22;10591;52.532;13.348;2023-04-03T06:15:56;5.04;58.76
20862;DHT22;10591;52.532;13.348;2023-04-03T06:18:27;3.72;62.89
20862;DHT22;10591;52.532;13.348;2023-04-03T06:20:58;2.76;66.68
20862;DHT22;10591;52.532;13.348;2023-04-03T06:23:30;2.38;68.00
20862;DHT22;10591;52.532;13.348;2023-04-03T06:26:02;2.12;69.10
20862;DHT22;10591;52.532;13.348;2023-04-03T06:28:33;2.14;69.47
20862;DHT22;10591;52.532;13.348;2023-04-03T06:31:04;1.96;70.15
20862;DHT22;10591;52.532;13.348;2023-04-03T06:33:34;2.04;69.89
20862;DHT22;10591;52.532;13.348;2023-04-03T06:36:05;1.98;70.16
20862;DHT22;10591;52.532;13.348;2023-04-03T06:38:37;1.82;70.25
20862;DHT22;10591;52.532;13.348;2023-04-03T06:41:07;1.94;70.26
20862;DHT22;10591;52.532;13.348;2023-04-03T06:43:38;1.98;70.34
20862;DHT22;10591;52.532;13.348;2023-04-03T06:46:20;2.19;69.69
20862;DHT22;10591;52.532;13.348;2023-04-03T06:48:46;2.08;69.30
20862;DHT22;10591;52.532;13.348;2023-04-03T06:51:24;2.28;68.95
20862;DHT22;10591;52.532;13.348;2023-04-03T06:53:58;2.34;68.31
20862;DHT22;10591;52.532;13.348;2023-04-03T06:56:29;2.42;68.03
20862;DHT22;10591;52.532;13.348;2023-04-03T06:59:00;2.48;67.34
20862;DHT22;10591;52.532;13.348;2023-04-03T07:01:31;2.42;66.40
20862;DHT22;10591;52.532;13.348;2023-04-03T07:04:02;2.36;65.90
20862;DHT22;10591;52.532;13.348;2023-04-03T07:06:33;2.34;65.85
20862;DHT22;10591;52.532;13.348;2023-04-03T07:09:03;2.42;65.71
20862;DHT22;10591;52.532;13.348;2023-04-03T07:11:34;2.48;65.05
20862;DHT22;10591;52.532;13.348;2023-04-03T07:14:05;2.76;63.83
20862;DHT22;10591;52.532;13.348;2023-04-03T07:16:37;3.00;62.70
20862;DHT22;10591;52.532;13.348;2023-04-03T07:19:09;3.54;61.21
20862;DHT22;10591;52.532;13.348;2023-04-03T07:21:40;3.76;59.27
20862;DHT22;10591;52.532;13.348;2023-04-03T07:24:11;3.98;57.46
20862;DHT22;10591;52.532;13.348;2023-04-03T07:26:43;3.82;56.71
20862;DHT22;10591;52.532;13.348;2023-04-03T07:29:15;3.62;56.86
20862;DHT22;10591;52.532;13.348;2023-04-03T07:31:46;3.66;57.17
20862;DHT22;10591;52.532;13.348;2023-04-03T07:34:17;3.81;56.31
20862;DHT22;10591;52.532;13.348;2023-04-03T07:36:48;3.69;55.92
20862;DHT22;10591;52.532;13.348;2023-04-03T07:39:19;4.00;55.41
20862;DHT22;10591;52.532;13.348;2023-04-03T07:41:53;3.98;54.80
20862;DHT22;10591;52.532;13.348;2023-04-03T07:44:27;4.02;54.63
20862;DHT22;10591;52.532;13.348;2023-04-03T07:46:59;3.73;55.29
20862;DHT22;10591;52.532;13.348;2023-04-03T07:49:31;3.88;55.63
20862;DHT22;10591;52.532;13.348;2023-04-03T07:52:02;3.84;55.42
20862;DHT22;10591;52.532;13.348;2023-04-03T07:54:34;4.33;54.65
20862;DHT22;10591;52.532;13.348;2023-04-03T07:57:06;4.21;55.19
20862;DHT22;10591;52.532;13.348;2023-04-03T07:59:36;4.26;55.07
20862;DHT22;10591;52.532;13.348;2023-04-03T08:02:09;4.22;55.85
20862;DHT22;10591;52.532;13.348;2023-04-03T08:04:42;3.90;55.23
20862;DHT22;10591;52.532;13.348;2023-04-03T08:07:12;4.05;55.19
20862;DHT22;10591;52.532;13.348;2023-04-03T08:09:44;4.37;55.38
20862;DHT22;10591;52.532;13.348;2023-04-03T08:12:15;4.62;54.35
20862;DHT22;10591;52.532;13.348;2023-04-03T08:14:46;4.60;53.45
20862;DHT22;10591;52.532;13.348;2023-04-03T08:17:16;4.70;53.27
20862;DHT22;10591;52.532;13.348;2023-04-03T08:19:47;5.52;51.07
20862;DHT22;10591;52.532;13.348;2023-04-03T08:22:18;5.46;50.58
20862;DHT22;10591;52.532;13.348;2023-04-03T08:24:48;5.54;50.74
20862;DHT22;10591;52.532;13.348;2023-04-03T08:27:20;5.92;50.76
20862;DHT22;10591;52.532;13.348;2023-04-03T08:29:51;5.41;50.51
20862;DHT22;10591;52.532;13.348;2023-04-03T08:32:22;5.44;50.81
20862;DHT22;10591;52.532;13.348;2023-04-03T08:34:53;5.54;49.96
20862;DHT22;10591;52.532;13.348;2023-04-03T08:37:25;5.00;50.43
20862;DHT22;10591;52.532;13.348;2023-04-03T08:39:57;5.13;50.26
20862;DHT22;10591;52.532;13.348;2023-04-03T08:45:35;5.04;49.92
20862;DHT22;10591;52.532;13.348;2023-04-03T08:48:05;4.92;49.78
20862;DHT22;10591;52.532;13.348;2023-04-03T08:50:41;4.93;49.70
20862;DHT22;10591;52.532;13.348;2023-04-03T08:53:15;5.50;48.92
20862;DHT22;10591;52.532;13.348;2023-04-03T08:55:49;5.44;48.73
20862;DHT22;10591;52.532;13.348;2023-04-03T08:58:33;5.40;49.13
20862;DHT22;10591;52.532;13.348;2023-04-03T09:01:02;4.82;49.80
20862;DHT22;10591;52.532;13.348;2023-04-03T09:03:36;4.98;50.09
20862;DHT22;10591;52.532;13.348;2023-04-03T09:06:13;4.88;50.11
20862;DHT22;10591;52.532;13.348;2023-04-03T09:11:58;5.11;49.75
20862;DHT22;10591;52.532;13.348;2023-04-03T09:14:53;5.03;49.49
20862;DHT22;10591;52.532;13.348;2023-04-03T09:17:35;4.90;48.59
20862;DHT22;10591;52.532;13.348;2023-04-03T09:22:54;5.18;47.36
20862;DHT22;10591;52.532;13.348;2023-04-03T09:25:31;5.10;47.81
20862;DHT22;10591;52.532;13.348;2023-04-03T09:28:03;5.04;47.74
20862;DHT22;10591;52.532;13.348;2023-04-03T09:30:37;4.82;48.49
20862;DHT22;10591;52.532;13.348;2023-04-03T09:33:09;4.74;49.21
20862;DHT22;10591;52.532;13.348;2023-04-03T09:35:41;4.56;50.03
20862;DHT22;10591;52.532;13.348;2023-04-03T09:38:16;4.41;49.96
20862;DHT22;10591;52.532;13.348;2023-04-03T09:40:49;4.20;50.22
20862;DHT22;10591;52.532;13.348;2023-04-03T09:43:23;4.46;50.57
20862;DHT22;10591;52.532;13.348;2023-04-03T09:45:55;4.44;50.30
20862;DHT22;10591;52.532;13.348;2023-04-03T09:48:26;4.92;49.84
20862;DHT22;10591;52.532;13.348;2023-04-03T09:50:59;5.28;48.87
20862;DHT22;10591;52.532;13.348;2023-04-03T09:53:42;5.82;47.60
20862;DHT22;10591;52.532;13.348;2023-04-03T10:01:33;5.26;48.15
20862;DHT22;10591;52.532;13.348;2023-04-03T10:04:15;5.44;48.15
20862;DHT22;10591;52.532;13.348;2023-04-03T10:06:49;5.70;47.73
20862;DHT22;10591;52.532;13.348;2023-04-03T10:09:30;5.82;46.79
20862;DHT22;10591;52.532;13.348;2023-04-03T10:12:05;6.18;45.36
20862;DHT22;10591;52.532;13.348;2023-04-03T10:14:53;6.09;45.66
20862;DHT22;10591;52.532;13.348;2023-04-03T10:19:58;5.57;46.55
20862;DHT22;10591;52.532;13.348;2023-04-03T10:22:46;6.02;45.58
20862;DHT22;10591;52.532;13.348;2023-04-03T10:25:36;5.81;45.99
20862;DHT22;10591;52.532;13.348;2023-04-03T10:28:17;5.80;45.46
20862;DHT22;10591;52.532;13.348;2023-04-03T10:33:58;5.68;44.92
20862;DHT22;10591;52.532;13.348;2023-04-03T10:39:15;5.61;45.31
20862;DHT22;10591;52.532;13.348;2023-04-03T10:42:06;6.24;43.92
20862;DHT22;10591;52.532;13.348;2023-04-03T10:53:30;5.90;44.67
20862;DHT22;10591;52.532;13.348;2023-04-03T10:58:52;6.62;43.91
20862;DHT22;10591;52.532;13.348;2023-04-03T11:01:20;6.77;43.24
20862;DHT22;10591;52.532;13.348;2023-04-03T11:03:54;6.76;43.64
20862;DHT22;10591;52.532;13.348;2023-04-03T11:06:46;6.91;44.13
20862;DHT22;10591;52.532;13.348;2023-04-03T11:09:21;6.92;43.51
20862;DHT22;10591;52.532;13.348;2023-04-03T11:12:04;6.62;43.50
20862;DHT22;10591;52.532;13.348;2023-04-03T11:14:35;6.64;43.98
20862;DHT22;10591;52.532;13.348;2023-04-03T11:17:26;6.44;44.64
20862;DHT22;10591;52.532;13.348;2023-04-03T11:22:35;5.98;46.50
20862;DHT22;10591;52.532;13.348;2023-04-03T11:30:40;6.12;46.15
20862;DHT22;10591;52.532;13.348;2023-04-03T11:35:57;6.09;46.21
20862;DHT22;10591;52.532;13.348;2023-04-03T11:38:35;6.26;46.23
20862;DHT22;10591;52.532;13.348;2023-04-03T11:41:05;6.34;46.52
20862;DHT22;10591;52.532;13.348;2023-04-03T11:43:42;6.29;45.99
20862;DHT22;10591;52.532;13.348;2023-04-03T11:46:18;6.74;46.35
20862;DHT22;10591;52.532;13.348;2023-04-03T11:48:49;6.74;45.80
20862;DHT22;10591;52.532;13.348;2023-04-03T11:51:40;6.59;45.59
20862;DHT22;10591;52.532;13.348;2023-04-03T11:54:36;6.59;45.47
20862;DHT22;10591;52.532;13.348;2023-04-03T12:03:30;5.98;47.49
20862;DHT22;10591;52.532;13.348;2023-04-03T12:08:47;6.14;48.00
20862;DHT22;10591;52.532;13.348;2023-04-03T12:11:25;6.00;47.92
20862;DHT22;10591;52.532;13.348;2023-04-03T12:24:39;6.41;48.10
20862;DHT22;10591;52.532;13.348;2023-04-03T12:35:34;5.96;49.20
20862;DHT22;10591;52.532;13.348;2023-04-03T12:41:36;6.65;47.45
20862;DHT22;10591;52.532;13.348;2023-04-03T12:44:17;6.62;47.60
20862;DHT22;10591;52.532;13.348;2023-04-03T12:46:49;6.64;47.05
20862;DHT22;10591;52.532;13.348;2023-04-03T12:49:45;7.04;45.40
20862;DHT22;10591;52.532;13.348;2023-04-03T12:52:26;6.60;45.00
20862;DHT22;10591;52.532;13.348;2023-04-03T12:54:56;6.74;44.52
20862;DHT22;10591;52.532;13.348;2023-04-03T12:57:28;6.62;45.41
20862;DHT22;10591;52.532;13.348;2023-04-03T13:00:00;6.22;46.29
20862;DHT22;10591;52.532;13.348;2023-04-03T13:02:32;6.42;46.26
20862;DHT22;10591;52.532;13.348;2023-04-03T13:05:13;6.34;46.55
20862;DHT22;10591;52.532;13.348;2023-04-03T13:07:42;6.23;47.06
20862;DHT22;10591;52.532;13.348;2023-04-03T13:10:16;6.16;47.09
20862;DHT22;10591;52.532;13.348;2023-04-03T13:13:06;6.26;47.68
20862;DHT22;10591;52.532;13.348;2023-04-03T13:15:41;6.30;47.72
20862;DHT22;10591;52.532;13.348;2023-04-03T13:18:30;5.97;48.10
20862;DHT22;10591;52.532;13.348;2023-04-03T13:21:14;5.80;49.02
20862;DHT22;10591;52.532;13.348;2023-04-03T13:23:38;5.82;49.03
20862;DHT22;10591;52.532;13.348;2023-04-03T13:26:10;5.86;49.24
20862;DHT22;10591;52.532;13.348;2023-04-03T13:28:46;5.73;49.47
20862;DHT22;10591;52.532;13.348;2023-04-03T13:31:27;5.76;49.24
20862;DHT22;10591;52.532;13.348;2023-04-03T13:34:13;6.19;48.89
20862;DHT22;10591;52.532;13.348;2023-04-03T13:39:27;6.41;47.98
20862;DHT22;10591;52.532;13.348;2023-04-03T13:42:01;6.43;47.92
20862;DHT22;10591;52.532;13.348;2023-04-03T13:44:35;6.18;48.25
20862;DHT22;10591;52.532;13.348;2023-04-03T13:47:15;5.94;48.53
20862;DHT22;10591;52.532;13.348;2023-04-03T13:50:04;5.76;49.05
20862;DHT22;10591;52.532;13.348;2023-04-03T13:52:46;6.01;48.75
20862;DHT22;10591;52.532;13.348;2023-04-03T14:00:51;5.84;50.03
20862;DHT22;10591;52.532;13.348;2023-04-03T14:06:14;5.90;49.97
20862;DHT22;10591;52.532;13.348;2023-04-03T14:08:45;5.88;49.82
20862;DHT22;10591;52.532;13.348;2023-04-03T14:11:24;5.91;49.91
20862;DHT22;10591;52.532;13.348;2023-04-03T14:14:05;5.67;50.40
20862;DHT22;10591;52.532;13.348;2023-04-03T14:16:39;5.78;50.53
20862;DHT22;10591;52.532;13.348;2023-04-03T14:19:18;5.68;50.64
20862;DHT22;10591;52.532;13.348;2023-04-03T14:21:44;5.78;50.11
20862;DHT22;10591;52.532;13.348;2023-04-03T14:24:14;5.98;49.57
20862;DHT22;10591;52.532;13.348;2023-04-03T14:26:49;6.22;48.98
20862;DHT22;10591;52.532;13.348;2023-04-03T14:29:21;5.83;50.24
20862;DHT22;10591;52.532;13.348;2023-04-03T14:31:54;5.57;50.12
20862;DHT22;10591;52.532;13.348;2023-04-03T14:34:26;5.60;50.30
20862;DHT22;10591;52.532;13.348;2023-04-03T14:36:57;5.66;50.70
20862;DHT22;10591;52.532;13.348;2023-04-03T14:39:28;6.28;49.49
20862;DHT22;10591;52.532;13.348;2023-04-03T14:42:01;6.79;48.76
20862;DHT22;10591;52.532;13.348;2023-04-03T14:44:33;6.82;48.18
20862;DHT22;10591;52.532;13.348;2023-04-03T14:47:04;6.55;48.97
20862;DHT22;10591;52.532;13.348;2023-04-03T14:49:38;6.44;49.50
20862;DHT22;10591;52.532;13.348;2023-04-03T14:52:20;6.06;50.85
20862;DHT22;10591;52.532;13.348;2023-04-03T14:54:53;6.06;51.17
20862;DHT22;10591;52.532;13.348;2023-04-03T14:57:28;5.62;52.28
20862;DHT22;10591;52.532;13.348;2023-04-03T15:00:00;5.51;53.18
20862;DHT22;10591;52.532;13.348;2023-04-03T15:02:37;5.44;53.17
20862;DHT22;10591;52.532;13.348;2023-04-03T15:05:10;5.52;52.88
20862;DHT22;10591;52.532;13.348;2023-04-03T15:07:55;5.16;53.69
20862;DHT22;10591;52.532;13.348;2023-04-03T15:10:23;5.12;54.57
20862;DHT22;10591;52.532;13.348;2023-04-03T15:12:55;5.10;54.47
20862;DHT22;10591;52.532;13.348;2023-04-03T15:15:28;5.15;54.72
20862;DHT22;10591;52.532;13.348;2023-04-03T15:17:59;5.06;54.85
20862;DHT22;10591;52.532;13.348;2023-04-03T15:20:30;5.09;55.20
20862;DHT22;10591;52.532;13.348;2023-04-03T15:23:02;5.08;55.72
20862;DHT22;10591;52.532;13.348;2023-04-03T15:25:35;5.20;55.88
20862;DHT22;10591;52.532;13.348;2023-04-03T15:28:09;5.00;56.17
20862;DHT22;10591;52.532;13.348;2023-04-03T15:30:41;4.97;55.88
20862;DHT22;10591;52.532;13.348;2023-04-03T15:33:13;4.93;55.99
20862;DHT22;10591;52.532;13.348;2023-04-03T15:35:45;5.07;55.95
20862;DHT22;10591;52.532;13.348;2023-04-03T15:38:16;4.96;56.00
20862;DHT22;10591;52.532;13.348;2023-04-03T15:40:48;4.98;55.91
20862;DHT22;10591;52.532;13.348;2023-04-03T15:43:19;5.03;55.98
20862;DHT22;10591;52.532;13.348;2023-04-03T15:45:49;5.41;55.51
20862;DHT22;10591;52.532;13.348;2023-04-03T15:48:34;5.18;55.30
20862;DHT22;10591;52.532;13.348;2023-04-03T15:51:31;5.10;55.06
20862;DHT22;10591;52.532;13.348;2023-04-03T15:54:02;5.12;54.89
20862;DHT22;10591;52.532;13.348;2023-04-03T15:56:35;5.06;55.19
20862;DHT22;10591;52.532;13.348;2023-04-03T15:59:06;5.09;54.94
20862;DHT22;10591;52.532;13.348;2023-04-03T16:01:37;4.93;54.74
20862;DHT22;10591;52.532;13.348;2023-04-03T16:04:11;4.86;54.91
20862;DHT22;10591;52.532;13.348;2023-04-03T16:06:44;4.88;55.66
20862;DHT22;10591;52.532;13.348;2023-04-03T16:09:16;4.70;56.45
20862;DHT22;10591;52.532;13.348;2023-04-03T16:11:47;4.60;56.89
20862;DHT22;10591;52.532;13.348;2023-04-03T16:14:18;4.48;57.47
20862;DHT22;10591;52.532;13.348;2023-04-03T16:16:48;4.37;57.43
20862;DHT22;10591;52.532;13.348;2023-04-03T16:19:21;4.47;57.41
20862;DHT22;10591;52.532;13.348;2023-04-03T16:21:56;4.60;57.01
20862;DHT22;10591;52.532;13.348;2023-04-03T16:24:27;4.72;56.57
20862;DHT22;10591;52.532;13.348;2023-04-03T16:26:57;4.96;56.09
20862;DHT22;10591;52.532;13.348;2023-04-03T16:29:31;5.28;55.90
20862;DHT22;10591;52.532;13.348;2023-04-03T16:32:02;5.12;56.02
20862;DHT22;10591;52.532;13.348;2023-04-03T16:34:34;5.16;56.48
20862;DHT22;10591;52.532;13.348;2023-04-03T16:37:05;5.14;56.74
20862;DHT22;10591;52.532;13.348;2023-04-03T16:39:37;4.98;57.06
20862;DHT22;10591;52.532;13.348;2023-04-03T16:42:08;5.06;57.11
20862;DHT22;10591;52.532;13.348;2023-04-03T16:44:39;5.00;57.50
20862;DHT22;10591;52.532;13.348;2023-04-03T16:47:09;4.82;57.96
20862;DHT22;10591;52.532;13.348;2023-04-03T16:49:40;4.76;58.71
20862;DHT22;10591;52.532;13.348;2023-04-03T16:52:11;4.63;58.73
20862;DHT22;10591;52.532;13.348;2023-04-03T16:54:42;4.69;58.85
20862;DHT22;10591;52.532;13.348;2023-04-03T16:57:12;4.66;59.55
20862;DHT22;10591;52.532;13.348;2023-04-03T16:59:43;4.61;60.17
20862;DHT22;10591;52.532;13.348;2023-04-03T17:02:15;4.58;59.14
20862;DHT22;10591;52.532;13.348;2023-04-03T17:04:46;4.48;59.69
20862;DHT22;10591;52.532;13.348;2023-04-03T17:07:20;4.53;60.43
20862;DHT22;10591;52.532;13.348;2023-04-03T17:09:51;4.34;60.87
20862;DHT22;10591;52.532;13.348;2023-04-03T17:12:23;4.38;61.24
20862;DHT22;10591;52.532;13.348;2023-04-03T17:14:53;4.38;60.88
20862;DHT22;10591;52.532;13.348;2023-04-03T17:17:24;4.47;60.89
20862;DHT22;10591;52.532;13.348;2023-04-03T17:19:55;4.38;61.42
20862;DHT22;10591;52.532;13.348;2023-04-03T17:22:27;4.27;61.20
20862;DHT22;10591;52.532;13.348;2023-04-03T17:24:58;4.18;61.21
20862;DHT22;10591;52.532;13.348;2023-04-03T17:27:29;4.22;61.36
20862;DHT22;10591;52.532;13.348;2023-04-03T17:30:00;4.12;61.34
20862;DHT22;10591;52.532;13.348;2023-04-03T17:32:31;4.23;61.08
20862;DHT22;10591;52.532;13.348;2023-04-03T17:35:02;4.18;61.38
20862;DHT22;10591;52.532;13.348;2023-04-03T17:37:32;4.04;61.54
20862;DHT22;10591;52.532;13.348;2023-04-03T17:40:05;4.10;61.92
20862;DHT22;10591;52.532;13.348;2023-04-03T17:42:35;4.02;62.10
20862;DHT22;10591;52.532;13.348;2023-04-03T17:45:08;4.06;62.13